createdAt,value
2018-02-21T00:02:01.073Z,45.38
2018-02-21T00:04:29.205Z,41.10
2018-02-21T00:06:57.345Z,40.05
2018-02-21T00:09:25.478Z,41.85
2018-02-21T00:11:53.621Z,41.78
2018-02-21T00:14:21.775Z,41.33
2018-02-21T00:16:49.905Z,41.60
2018-02-21T00:19:18.041Z,39.50
2018-02-21T00:21:46.945Z,43.42
2018-02-21T00:24:15.853Z,43.65
2018-02-21T00:26:43.971Z,44.90
2018-02-21T00:29:12.122Z,41.03
2018-02-21T00:31:40.328Z,43.17
2018-02-21T00:34:08.498Z,41.47
2018-02-21T00:36:36.627Z,41.92
2018-02-21T00:39:04.765Z,43.65
2018-02-21T00:41:32.884Z,43.13
2018-02-21T00:44:01.789Z,46.60
2018-02-21T00:46:29.910Z,43.30
2018-02-21T00:48:58.060Z,44.63
2018-02-21T00:51:27.046Z,44.50
2018-02-21T00:53:55.990Z,47.05
2018-02-21T00:56:24.136Z,43.58
2018-02-21T00:58:52.268Z,47.35
2018-02-21T01:01:20.394Z,50.60
2018-02-21T01:03:48.545Z,42.92
2018-02-21T01:06:16.678Z,43.45
2018-02-21T01:08:44.799Z,43.60
2018-02-21T01:11:12.934Z,45.28
2018-02-21T01:13:41.836Z,48.25
2018-02-21T01:16:10.729Z,46.75
2018-02-21T01:18:39.636Z,46.05
2018-02-21T01:21:08.221Z,46.40
2018-02-21T01:23:36.353Z,45.03
2018-02-21T01:26:05.255Z,42.33
2018-02-21T01:28:34.164Z,38.78
2018-02-21T01:31:02.303Z,44.45
2018-02-21T01:33:31.193Z,43.80
2018-02-21T01:35:59.336Z,44.35
2018-02-21T01:38:28.234Z,40.70
2018-02-21T01:40:56.378Z,44.28
2018-02-21T01:43:24.861Z,38.63
2018-02-21T01:45:52.996Z,44.42
2018-02-21T01:48:21.129Z,44.90
2018-02-21T01:50:52.502Z,42.97
2018-02-21T01:53:21.409Z,42.95
2018-02-21T01:55:49.537Z,45.88
2018-02-21T01:58:17.695Z,43.92
2018-02-21T02:00:46.159Z,43.35
2018-02-21T02:03:14.289Z,43.42
2018-02-21T02:05:42.421Z,41.60
2018-02-21T02:08:10.576Z,42.92
2018-02-21T02:10:38.700Z,43.63
2018-02-21T02:13:07.621Z,41.97
2018-02-21T02:15:35.749Z,42.47
2018-02-21T02:18:04.677Z,43.85
2018-02-21T02:20:32.797Z,44.13
2018-02-21T02:23:00.945Z,44.30
2018-02-21T02:25:29.069Z,45.42
2018-02-21T02:27:57.974Z,40.47
2018-02-21T02:30:26.122Z,41.63
2018-02-21T02:32:55.016Z,45.25
2018-02-21T02:35:23.905Z,39.95
2018-02-21T02:37:52.811Z,41.15
2018-02-21T02:40:20.945Z,46.00
2018-02-21T02:42:49.074Z,47.50
2018-02-21T02:45:17.214Z,45.08
2018-02-21T02:47:46.114Z,40.88
2018-02-21T02:50:14.258Z,46.67
2018-02-21T02:52:43.154Z,43.47
2018-02-21T02:55:12.065Z,46.10
2018-02-21T02:57:40.210Z,40.97
2018-02-21T03:00:09.477Z,47.15
2018-02-21T03:02:37.953Z,42.85
2018-02-21T03:05:06.076Z,44.40
2018-02-21T03:07:34.210Z,46.25
2018-02-21T03:10:02.362Z,50.50
2018-02-21T03:12:30.510Z,54.25
2018-02-21T03:14:58.645Z,48.72
2018-02-21T03:17:27.532Z,48.40
2018-02-21T03:19:56.454Z,51.75
2018-02-21T03:22:24.577Z,46.90
2018-02-21T03:24:52.704Z,49.90
2018-02-21T03:27:20.857Z,47.15
2018-02-21T03:29:49.817Z,51.25
2018-02-21T03:32:21.741Z,57.70
2018-02-21T03:34:49.884Z,54.58
2018-02-21T03:37:18.024Z,51.47
2018-02-21T03:39:46.175Z,58.92
2018-02-21T03:42:14.398Z,50.78
2018-02-21T03:44:43.298Z,51.78
2018-02-21T03:47:11.436Z,52.45
2018-02-21T03:49:40.341Z,47.97
2018-02-21T03:52:09.249Z,49.85
2018-02-21T03:54:37.378Z,53.80
2018-02-21T03:57:05.548Z,51.35
2018-02-21T03:59:33.691Z,53.03
2018-02-21T04:02:01.838Z,52.33
2018-02-21T04:04:30.342Z,54.20
2018-02-21T04:06:58.490Z,50.70
2018-02-21T04:09:26.613Z,49.28
2018-02-21T04:11:54.759Z,53.58
2018-02-21T04:14:22.889Z,53.00
2018-02-21T04:16:51.050Z,50.08
2018-02-21T04:19:19.177Z,49.80
2018-02-21T04:21:47.396Z,50.30
2018-02-21T04:24:15.545Z,47.62
2018-02-21T04:26:43.671Z,53.92
2018-02-21T04:29:11.816Z,51.70
2018-02-21T04:31:39.953Z,48.30
2018-02-21T04:34:08.101Z,57.42
2018-02-21T04:36:36.224Z,51.53
2018-02-21T04:39:05.128Z,62.70
2018-02-21T04:41:33.275Z,54.25
2018-02-21T04:44:02.252Z,57.53
2018-02-21T04:46:30.430Z,55.72
2018-02-21T04:48:58.571Z,59.58
2018-02-21T04:51:26.792Z,61.95
2018-02-21T04:53:55.698Z,65.20
2018-02-21T04:56:29.493Z,61.13
2018-02-21T05:12:20.309Z,79.97
2018-02-21T05:14:48.501Z,67.22
2018-02-21T05:17:16.638Z,61.08
2018-02-21T05:19:44.853Z,62.47
2018-02-21T05:22:12.975Z,65.50
2018-02-21T05:24:41.137Z,63.55
2018-02-21T05:27:09.621Z,63.67
2018-02-21T05:29:37.778Z,61.90
2018-02-21T05:32:06.778Z,64.00
2018-02-21T05:34:34.962Z,61.05
2018-02-21T05:37:03.164Z,57.65
2018-02-21T05:39:31.297Z,58.10
2018-02-21T05:41:59.431Z,63.95
2018-02-21T05:44:27.552Z,66.20
2018-02-21T05:46:55.702Z,61.35
2018-02-21T05:49:24.626Z,66.25
2018-02-21T05:51:52.869Z,65.25
2018-02-21T05:54:21.037Z,64.22
2018-02-21T05:56:49.945Z,65.53
2018-02-21T05:59:18.114Z,64.70
2018-02-21T06:01:46.417Z,65.35
2018-02-21T06:04:14.661Z,65.18
2018-02-21T06:06:42.805Z,65.68
2018-02-21T06:09:10.945Z,66.80
2018-02-21T06:11:39.093Z,62.22
2018-02-21T06:14:07.277Z,63.95
2018-02-21T06:16:35.441Z,59.40
2018-02-21T06:19:03.568Z,60.80
2018-02-21T06:21:32.501Z,58.17
2018-02-21T06:24:00.608Z,68.40
2018-02-21T06:26:28.771Z,62.83
2018-02-21T06:28:56.904Z,58.15
2018-02-21T06:31:25.034Z,65.90
2018-02-21T06:33:53.992Z,65.32
2018-02-21T06:36:22.131Z,61.25
2018-02-21T06:38:50.298Z,59.97
2018-02-21T06:41:18.424Z,61.72
2018-02-21T06:43:46.610Z,51.00
2018-02-21T06:46:15.923Z,58.80
2018-02-21T06:48:44.831Z,56.78
2018-02-21T06:51:13.329Z,54.25
2018-02-21T06:53:41.826Z,52.00
2018-02-21T06:56:10.950Z,55.35
2018-02-21T06:58:39.085Z,59.80
2018-02-21T07:01:07.326Z,58.67
2018-02-21T07:03:35.472Z,53.35
2018-02-21T07:06:04.369Z,56.83
2018-02-21T07:08:33.293Z,48.13
2018-02-21T07:11:01.452Z,51.95
2018-02-21T07:13:29.598Z,57.03
2018-02-21T07:15:58.580Z,54.10
2018-02-21T07:18:26.768Z,50.15
2018-02-21T07:20:54.909Z,56.47
2018-02-21T07:23:23.053Z,49.13
2018-02-21T07:25:52.011Z,51.15
2018-02-21T07:28:20.141Z,55.70
2018-02-21T07:30:48.334Z,49.65
2018-02-21T07:33:16.574Z,49.30
2018-02-21T07:35:44.724Z,52.20
2018-02-21T07:38:13.623Z,54.55
2018-02-21T07:40:41.783Z,44.78
2018-02-21T07:43:09.905Z,45.50
2018-02-21T07:45:38.878Z,46.55
2018-02-21T07:48:07.021Z,44.78
2018-02-21T07:50:35.145Z,46.20
2018-02-21T07:53:04.068Z,47.67
2018-02-21T07:55:32.196Z,45.15
2018-02-21T07:58:01.083Z,44.30
2018-02-21T08:00:30.004Z,42.95
2018-02-21T08:02:58.163Z,44.90
2018-02-21T08:05:26.285Z,40.87
2018-02-21T08:07:54.419Z,41.93
2018-02-21T08:10:22.550Z,46.80
2018-02-21T08:12:50.692Z,49.73
2018-02-21T08:15:18.812Z,43.97
2018-02-21T08:17:47.728Z,44.77
2018-02-21T08:20:15.888Z,43.47
2018-02-21T08:22:44.028Z,42.40
2018-02-21T08:25:12.918Z,46.30
2018-02-21T08:27:41.840Z,43.63
2018-02-21T08:30:09.960Z,45.83
2018-02-21T08:32:38.110Z,52.53
2018-02-21T08:35:06.354Z,48.57
2018-02-21T08:37:34.486Z,39.77
2018-02-21T08:40:02.640Z,40.27
2018-02-21T08:42:30.785Z,41.47
2018-02-21T08:44:58.917Z,45.97
2018-02-21T08:47:27.063Z,44.27
2018-02-21T08:49:55.209Z,42.97
2018-02-21T08:52:23.357Z,43.43
2018-02-21T08:54:51.521Z,42.20
2018-02-21T08:57:19.660Z,43.23
2018-02-21T08:59:48.565Z,42.33
2018-02-21T09:02:17.285Z,47.13
2018-02-21T09:04:45.408Z,43.33
2018-02-21T09:07:14.313Z,43.83
2018-02-21T09:09:42.450Z,48.17
2018-02-21T09:12:11.974Z,47.50
2018-02-21T09:14:40.364Z,41.60
2018-02-21T09:17:09.257Z,42.83
2018-02-21T09:19:37.398Z,47.13
2018-02-21T09:22:05.524Z,40.40
2018-02-21T09:24:33.656Z,42.27
2018-02-21T09:27:02.554Z,41.83
2018-02-21T09:29:31.455Z,36.93
2018-02-21T09:31:59.596Z,41.20
2018-02-21T09:34:28.509Z,38.70
2018-02-21T09:36:56.646Z,41.00
2018-02-21T09:39:24.867Z,40.60
2018-02-21T09:41:53.132Z,42.00
2018-02-21T09:44:21.415Z,42.17
2018-02-21T09:46:49.550Z,40.47
2018-02-21T09:49:18.478Z,39.57
2018-02-21T09:51:46.602Z,38.50
2018-02-21T09:54:14.822Z,38.70
2018-02-21T09:56:42.950Z,43.27
2018-02-21T09:59:11.104Z,36.73
2018-02-21T10:01:39.256Z,41.30
2018-02-21T10:04:07.375Z,41.17
2018-02-21T10:06:35.513Z,41.60
2018-02-21T10:09:03.667Z,40.37
2018-02-21T10:11:31.910Z,41.10
2018-02-21T10:14:00.054Z,38.73
2018-02-21T10:16:28.197Z,41.30
2018-02-21T10:18:56.325Z,41.20
2018-02-21T10:21:24.461Z,40.53
2018-02-21T10:23:52.572Z,38.90
2018-02-21T10:26:20.728Z,39.80
2018-02-21T10:28:49.603Z,39.40
2018-02-21T10:31:18.527Z,39.50
2018-02-21T10:33:47.398Z,41.23
2018-02-21T10:36:16.298Z,38.40
2018-02-21T10:38:44.476Z,38.83
2018-02-21T10:41:12.729Z,42.37
2018-02-21T10:43:41.635Z,39.93
2018-02-21T10:46:09.765Z,36.60
2018-02-21T10:48:37.922Z,39.73
2018-02-21T10:51:06.085Z,36.63
2018-02-21T10:53:34.208Z,37.00
2018-02-21T10:56:03.105Z,37.23
2018-02-21T10:58:32.003Z,34.10
2018-02-21T11:01:05.784Z,33.67
2018-02-21T11:03:34.734Z,32.87
2018-02-21T11:06:02.855Z,35.63
2018-02-21T11:08:31.757Z,34.20
2018-02-21T11:10:59.915Z,37.17
2018-02-21T11:13:28.918Z,33.70
2018-02-21T11:15:57.063Z,32.03
2018-02-21T11:18:25.267Z,35.03
2018-02-21T11:20:53.385Z,32.80
2018-02-21T11:23:21.529Z,35.70
2018-02-21T11:25:49.676Z,33.50
2018-02-21T11:28:17.825Z,32.73
2018-02-21T11:30:46.731Z,33.43
2018-02-21T11:33:15.632Z,33.00
2018-02-21T11:35:43.757Z,33.70
2018-02-21T11:38:11.897Z,34.90
2018-02-21T11:40:40.034Z,33.53
2018-02-21T11:43:08.184Z,32.33
2018-02-21T11:45:37.105Z,31.67
2018-02-21T11:48:05.233Z,33.17
2018-02-21T11:50:33.367Z,32.80
2018-02-21T11:53:01.517Z,33.23
2018-02-21T11:55:29.701Z,31.80
2018-02-21T11:57:57.834Z,34.03
2018-02-21T12:00:26.138Z,32.57
2018-02-21T12:02:54.277Z,29.37
2018-02-21T12:05:23.198Z,35.50
2018-02-21T12:07:51.343Z,31.30
2018-02-21T12:10:19.613Z,32.00
2018-02-21T12:12:48.054Z,30.37
2018-02-21T12:15:16.289Z,30.83
2018-02-21T12:17:44.496Z,30.07
2018-02-21T12:20:12.669Z,30.60
2018-02-21T12:22:40.801Z,29.70
2018-02-21T12:25:08.941Z,32.00
2018-02-21T12:27:37.308Z,31.30
2018-02-21T12:30:05.502Z,30.07
2018-02-21T12:32:37.274Z,29.50
2018-02-21T12:35:06.185Z,30.90
2018-02-21T12:37:35.136Z,27.57
2018-02-21T12:40:03.274Z,28.80
2018-02-21T12:42:31.405Z,28.17
2018-02-21T12:45:00.309Z,30.90
2018-02-21T12:47:28.482Z,29.40
2018-02-21T12:49:56.626Z,29.10
2018-02-21T12:52:24.802Z,26.40
2018-02-21T12:54:52.940Z,26.37
2018-02-21T12:57:22.939Z,27.10
2018-02-21T12:59:51.080Z,25.67
2018-02-21T13:02:19.213Z,26.30
2018-02-21T13:04:47.390Z,26.57
2018-02-21T13:07:17.042Z,28.23
2018-02-21T13:09:45.171Z,27.00
2018-02-21T13:12:14.101Z,26.93
2018-02-21T13:14:42.242Z,25.97
2018-02-21T13:17:10.403Z,25.43
2018-02-21T13:19:38.560Z,24.10
2018-02-21T13:22:06.714Z,25.97
2018-02-21T13:24:34.850Z,24.77
2018-02-21T13:27:02.994Z,26.17
2018-02-21T13:29:31.118Z,26.80
2018-02-21T13:31:59.267Z,22.63
2018-02-21T13:34:27.407Z,25.43
2018-02-21T13:36:56.310Z,26.20
2018-02-21T13:39:24.493Z,24.77
2018-02-21T13:41:52.642Z,25.33
2018-02-21T13:44:20.779Z,25.03
2018-02-21T13:46:48.905Z,21.00
2018-02-21T13:49:17.136Z,23.60
2018-02-21T13:51:45.286Z,22.43
2018-02-21T13:54:13.448Z,22.70
2018-02-21T13:56:41.706Z,24.00
2018-02-21T13:59:09.833Z,20.67
2018-02-21T14:01:38.802Z,22.10
2018-02-21T14:04:06.946Z,25.03
2018-02-21T14:06:35.189Z,22.70
2018-02-21T14:09:03.361Z,21.93
2018-02-21T14:11:31.486Z,20.70
2018-02-21T14:13:59.632Z,18.50
2018-02-21T14:16:27.766Z,21.70
2018-02-21T14:18:55.910Z,20.90
2018-02-21T14:21:24.853Z,21.50
2018-02-21T14:23:53.000Z,21.27
2018-02-21T14:26:21.129Z,27.60
2018-02-21T14:28:49.305Z,20.60
2018-02-21T14:31:17.850Z,21.10
2018-02-21T14:33:46.007Z,25.00
2018-02-21T14:36:14.147Z,22.00
2018-02-21T14:38:43.036Z,20.55
2018-02-21T14:41:11.192Z,21.17
2018-02-21T14:43:40.101Z,19.85
2018-02-21T14:46:08.232Z,20.98
2018-02-21T14:48:36.401Z,20.30
2018-02-21T14:51:04.594Z,20.27
2018-02-21T14:53:33.509Z,20.88
2018-02-21T14:56:01.645Z,20.03
2018-02-21T14:58:30.543Z,21.33
2018-02-21T15:00:58.696Z,20.85
2018-02-21T15:03:26.827Z,20.05
2018-02-21T15:05:54.984Z,19.52
2018-02-21T15:08:23.129Z,18.67
2018-02-21T15:10:52.042Z,21.27
2018-02-21T15:13:20.181Z,20.75
2018-02-21T15:15:48.809Z,21.62
2018-02-21T15:18:17.001Z,19.15
2018-02-21T15:20:45.266Z,18.98
2018-02-21T15:23:13.461Z,19.35
2018-02-21T15:25:41.680Z,20.12
2018-02-21T15:28:09.829Z,20.37
2018-02-21T15:30:38.753Z,20.10
2018-02-21T15:33:06.913Z,19.10
2018-02-21T15:35:35.810Z,20.50
2018-02-21T15:38:03.945Z,20.73
2018-02-21T15:40:32.075Z,21.30
2018-02-21T15:43:01.290Z,21.35
2018-02-21T15:45:29.423Z,22.42
2018-02-21T15:47:57.567Z,23.50
2018-02-21T15:50:26.478Z,23.45
2018-02-21T15:52:54.699Z,22.50
2018-02-21T15:55:22.984Z,24.80
2018-02-21T15:57:51.105Z,22.33
2018-02-21T16:00:19.240Z,22.65
2018-02-21T16:02:47.381Z,22.45
2018-02-21T16:05:15.566Z,20.60
2018-02-21T16:07:43.786Z,22.13
2018-02-21T16:10:12.153Z,23.35
2018-02-21T16:12:40.318Z,25.10
2018-02-21T16:15:09.213Z,21.80
2018-02-21T16:17:37.413Z,22.35
2018-02-21T16:20:05.560Z,23.00
2018-02-21T16:22:33.695Z,24.05
2018-02-21T16:25:01.932Z,23.40
2018-02-21T16:27:30.098Z,24.50
2018-02-21T16:29:58.227Z,21.92
2018-02-21T16:32:27.135Z,23.52
2018-02-21T16:34:55.893Z,23.27
2018-02-21T16:37:24.023Z,24.70
2018-02-21T16:39:52.305Z,22.42
2018-02-21T16:42:20.460Z,22.30
2018-02-21T16:44:48.617Z,22.13
2018-02-21T16:47:16.766Z,21.33
2018-02-21T16:49:44.983Z,21.58
2018-02-21T16:52:13.133Z,22.70
2018-02-21T16:54:41.372Z,22.10
2018-02-21T16:57:09.626Z,21.00
2018-02-21T16:59:37.801Z,21.95
2018-02-21T17:02:05.916Z,22.42
2018-02-21T17:04:34.080Z,23.35
2018-02-21T17:07:02.971Z,24.35
2018-02-21T17:09:31.861Z,22.42
2018-02-21T17:12:00.007Z,23.42
2018-02-21T17:14:28.178Z,23.87
2018-02-21T17:16:56.320Z,23.58
2018-02-21T17:19:24.434Z,26.45
2018-02-21T17:21:53.401Z,25.17
2018-02-21T17:24:21.656Z,24.77
2018-02-21T17:26:49.809Z,23.77
2018-02-21T17:29:18.065Z,25.35
2018-02-21T17:31:47.102Z,26.12
2018-02-21T17:34:15.254Z,25.02
2018-02-21T17:36:43.381Z,24.45
2018-02-21T17:39:11.512Z,26.23
2018-02-21T17:41:39.713Z,25.65
2018-02-21T17:44:07.881Z,25.62
2018-02-21T17:46:36.021Z,25.42
2018-02-21T17:49:04.165Z,25.80
2018-02-21T17:51:32.309Z,26.80
2018-02-21T17:54:00.574Z,28.48
2018-02-21T17:56:28.706Z,25.75
2018-02-21T17:58:56.843Z,28.75
2018-02-21T18:01:25.091Z,28.05
2018-02-21T18:03:53.240Z,28.55
2018-02-21T18:06:21.495Z,27.50
2018-02-21T18:08:49.690Z,26.17
2018-02-21T18:11:17.910Z,27.13
2018-02-21T18:13:46.132Z,27.55
2018-02-21T18:16:14.238Z,28.30
2018-02-21T18:18:43.168Z,28.35
2018-02-21T18:34:40.262Z,29.55
2018-02-21T18:37:08.381Z,26.98
2018-02-21T18:39:36.507Z,28.05
2018-02-21T18:42:05.408Z,24.73
2018-02-21T18:44:33.537Z,28.62
2018-02-21T18:47:01.668Z,30.62
2018-02-21T18:49:29.850Z,30.65
2018-02-21T18:51:57.985Z,28.40
2018-02-21T18:54:26.889Z,30.00
2018-02-21T18:56:55.061Z,28.25
2018-02-21T18:59:23.196Z,28.65
2018-02-21T19:01:52.213Z,30.33
2018-02-21T19:04:20.424Z,28.02
2018-02-21T19:06:48.552Z,30.20
2018-02-21T19:09:16.693Z,33.38
2018-02-21T19:11:44.846Z,29.33
2018-02-21T19:14:13.048Z,30.10
2018-02-21T19:16:41.950Z,29.58
2018-02-21T19:19:10.092Z,30.92
2018-02-21T19:21:38.216Z,31.85
2018-02-21T19:24:07.120Z,29.95
2018-02-21T19:26:35.248Z,31.00
2018-02-21T19:29:04.946Z,30.30
2018-02-21T19:31:33.974Z,30.12
2018-02-21T19:34:02.145Z,28.92
2018-02-21T19:36:30.288Z,27.67
2018-02-21T19:38:59.173Z,27.58
2018-02-21T19:41:28.102Z,30.48
2018-02-21T19:43:56.229Z,27.45
2018-02-21T19:46:24.389Z,30.65
2018-02-21T19:48:52.522Z,34.42
2018-02-21T19:51:20.822Z,31.67
2018-02-21T19:53:48.949Z,31.77
2018-02-21T19:56:17.094Z,28.98
2018-02-21T19:58:46.300Z,29.63
2018-02-21T20:01:14.957Z,30.35
2018-02-21T20:03:43.116Z,30.35
2018-02-21T20:06:12.324Z,28.30
2018-02-21T20:08:43.081Z,30.10
2018-02-21T20:11:12.644Z,30.37
2018-02-21T20:13:41.620Z,28.90
2018-02-21T20:16:12.489Z,29.17
2018-02-21T20:18:41.837Z,28.23
2018-02-21T20:21:09.953Z,27.65
2018-02-21T20:23:38.688Z,28.02
2018-02-21T20:26:07.664Z,28.33
2018-02-21T20:28:36.582Z,29.40
2018-02-21T20:31:05.847Z,27.67
2018-02-21T20:33:36.346Z,32.28
2018-02-21T20:36:05.334Z,30.17
2018-02-21T20:38:34.529Z,28.75
2018-02-21T20:41:02.941Z,28.55
2018-02-21T20:43:31.894Z,26.15
2018-02-21T20:46:00.846Z,28.23
2018-02-21T20:48:28.984Z,27.40
2018-02-21T20:50:57.894Z,27.50
2018-02-21T20:53:26.048Z,24.95
2018-02-21T20:55:54.953Z,27.73
2018-02-21T20:58:23.848Z,27.58
2018-02-21T21:00:51.978Z,26.90
2018-02-21T21:03:20.215Z,27.98
2018-02-21T21:05:49.066Z,27.35
2018-02-21T21:08:17.961Z,25.70
2018-02-21T21:10:46.094Z,27.60
2018-02-21T21:13:14.238Z,25.85
2018-02-21T21:15:42.376Z,24.02
2018-02-21T21:18:11.324Z,26.10
2018-02-21T21:20:40.474Z,24.77
2018-02-21T21:23:08.605Z,26.70
2018-02-21T21:25:36.763Z,24.45
2018-02-21T21:28:04.908Z,25.92
2018-02-21T21:30:33.046Z,27.05
2018-02-21T21:33:01.196Z,23.83
2018-02-21T21:35:29.341Z,25.15
2018-02-21T21:37:57.533Z,26.35
2018-02-21T21:40:25.671Z,26.25
2018-02-21T21:42:53.804Z,24.63
2018-02-21T21:45:21.949Z,25.48
2018-02-21T21:47:50.090Z,24.20
2018-02-21T21:50:18.317Z,23.10
2018-02-21T21:52:46.430Z,24.33
2018-02-21T21:55:14.595Z,24.48
2018-02-21T21:57:42.775Z,23.05
2018-02-21T22:00:10.905Z,24.35
2018-02-21T22:02:39.044Z,24.37
2018-02-21T22:05:07.200Z,24.77
2018-02-21T22:07:35.341Z,24.12
2018-02-21T22:10:03.492Z,22.10
2018-02-21T22:12:32.405Z,23.48
2018-02-21T22:15:00.552Z,23.58
2018-02-21T22:17:29.487Z,22.15
2018-02-21T22:19:57.698Z,23.70
2018-02-21T22:22:25.863Z,22.77
2018-02-21T22:24:53.998Z,22.02
2018-02-21T22:27:22.141Z,21.85
2018-02-21T22:29:50.276Z,20.25
2018-02-21T22:32:18.440Z,24.33
2018-02-21T22:34:46.601Z,21.35
2018-02-21T22:37:14.752Z,20.60
2018-02-21T22:39:42.889Z,20.30
2018-02-21T22:42:11.027Z,20.85
2018-02-21T22:44:39.150Z,22.05
2018-02-21T22:47:07.285Z,20.23
2018-02-21T22:49:35.457Z,20.65
2018-02-21T22:52:04.357Z,19.60
2018-02-21T22:54:32.491Z,20.42
2018-02-21T22:57:00.651Z,20.25
2018-02-21T22:59:28.793Z,20.05
2018-02-21T23:01:56.918Z,20.35
2018-02-21T23:04:25.060Z,18.23
2018-02-21T23:06:53.193Z,19.67
2018-02-21T23:09:21.484Z,18.83
2018-02-21T23:11:49.608Z,20.08
2018-02-21T23:14:17.756Z,19.00
2018-02-21T23:16:45.884Z,19.02
2018-02-21T23:19:14.048Z,17.73
2018-02-21T23:21:44.186Z,20.70
2018-02-21T23:24:12.328Z,19.25
2018-02-21T23:26:41.213Z,19.17
2018-02-21T23:29:10.122Z,18.75
2018-02-21T23:31:38.261Z,18.73
2018-02-21T23:34:06.400Z,19.27
2018-02-21T23:36:34.521Z,19.30
2018-02-21T23:39:03.442Z,19.20
2018-02-21T23:41:31.583Z,17.37
2018-02-21T23:44:00.492Z,19.73
2018-02-21T23:46:28.686Z,19.05
2018-02-21T23:48:56.915Z,17.52
2018-02-21T23:51:25.885Z,16.60
2018-02-21T23:53:54.024Z,18.30
2018-02-21T23:56:22.165Z,17.85
2018-02-21T23:58:50.339Z,19.40
